sensor_id;sensor_type;location;lat;lon;timestamp;P1;durP1;ratioP1;P2;durP2;ratioP2
64498;SDS011;51087;55.718;21.122;2022-12-11T00:01:49;17.65;;;7.30;;
64498;SDS011;51087;55.718;21.122;2022-12-11T00:04:15;15.32;;;6.68;;
64498;SDS011;51087;55.718;21.122;2022-12-11T00:06:40;16.00;;;7.63;;
64498;SDS011;51087;55.718;21.122;2022-12-11T00:09:06;20.92;;;8.15;;
64498;SDS011;51087;55.718;21.122;2022-12-11T00:11:32;19.98;;;8.07;;
64498;SDS011;51087;55.718;21.122;2022-12-11T00:13:57;18.83;;;7.60;;
64498;SDS011;51087;55.718;21.122;2022-12-11T00:16:23;16.98;;;7.32;;
64498;SDS011;51087;55.718;21.122;2022-12-11T00:18:48;19.80;;;8.35;;
64498;SDS011;51087;55.718;21.122;2022-12-11T00:21:14;19.38;;;8.27;;
64498;SDS011;51087;55.718;21.122;2022-12-11T00:23:39;18.08;;;8.23;;
64498;SDS011;51087;55.718;21.122;2022-12-11T00:26:06;20.95;;;8.45;;
64498;SDS011;51087;55.718;21.122;2022-12-11T00:28:36;18.58;;;8.05;;
64498;SDS011;51087;55.718;21.122;2022-12-11T00:31:04;19.17;;;8.45;;
64498;SDS011;51087;55.718;21.122;2022-12-11T00:33:31;24.45;;;8.70;;
64498;SDS011;51087;55.718;21.122;2022-12-11T00:35:57;21.70;;;8.23;;
64498;SDS011;51087;55.718;21.122;2022-12-11T00:38:23;19.23;;;7.70;;
64498;SDS011;51087;55.718;21.122;2022-12-11T00:40:48;20.17;;;7.82;;
64498;SDS011;51087;55.718;21.122;2022-12-11T00:43:14;17.63;;;7.68;;
64498;SDS011;51087;55.718;21.122;2022-12-11T00:45:40;16.85;;;7.20;;
64498;SDS011;51087;55.718;21.122;2022-12-11T00:48:08;15.98;;;6.45;;
64498;SDS011;51087;55.718;21.122;2022-12-11T00:50:34;20.35;;;7.38;;
64498;SDS011;51087;55.718;21.122;2022-12-11T00:53:00;24.42;;;7.95;;
64498;SDS011;51087;55.718;21.122;2022-12-11T00:55:26;14.15;;;6.95;;
64498;SDS011;51087;55.718;21.122;2022-12-11T00:57:53;16.55;;;6.88;;
64498;SDS011;51087;55.718;21.122;2022-12-11T01:00:19;21.27;;;7.97;;
64498;SDS011;51087;55.718;21.122;2022-12-11T01:02:46;17.88;;;7.57;;
64498;SDS011;51087;55.718;21.122;2022-12-11T01:05:12;16.52;;;6.63;;
64498;SDS011;51087;55.718;21.122;2022-12-11T01:07:38;15.82;;;7.28;;
64498;SDS011;51087;55.718;21.122;2022-12-11T01:10:03;21.65;;;8.40;;
64498;SDS011;51087;55.718;21.122;2022-12-11T01:12:47;20.60;;;7.57;;
64498;SDS011;51087;55.718;21.122;2022-12-11T01:15:14;17.10;;;7.65;;
64498;SDS011;51087;55.718;21.122;2022-12-11T01:17:39;13.60;;;7.50;;
64498;SDS011;51087;55.718;21.122;2022-12-11T01:20:04;12.98;;;6.20;;
64498;SDS011;51087;55.718;21.122;2022-12-11T01:22:30;17.40;;;7.90;;
64498;SDS011;51087;55.718;21.122;2022-12-11T01:24:56;13.65;;;6.78;;
64498;SDS011;51087;55.718;21.122;2022-12-11T01:27:21;11.77;;;6.00;;
64498;SDS011;51087;55.718;21.122;2022-12-11T01:29:47;15.48;;;7.18;;
64498;SDS011;51087;55.718;21.122;2022-12-11T01:32:13;12.23;;;6.00;;
64498;SDS011;51087;55.718;21.122;2022-12-11T01:34:39;14.63;;;6.50;;
64498;SDS011;51087;55.718;21.122;2022-12-11T01:37:04;13.07;;;6.80;;
64498;SDS011;51087;55.718;21.122;2022-12-11T01:39:30;10.73;;;4.90;;
64498;SDS011;51087;55.718;21.122;2022-12-11T01:41:56;11.23;;;4.45;;
64498;SDS011;51087;55.718;21.122;2022-12-11T01:46:48;12.07;;;5.53;;
64498;SDS011;51087;55.718;21.122;2022-12-11T01:49:14;13.77;;;5.15;;
64498;SDS011;51087;55.718;21.122;2022-12-11T01:52:17;13.68;;;5.82;;
64498;SDS011;51087;55.718;21.122;2022-12-11T01:54:42;10.88;;;5.32;;
64498;SDS011;51087;55.718;21.122;2022-12-11T01:57:08;14.48;;;6.28;;
64498;SDS011;51087;55.718;21.122;2022-12-11T01:59:36;11.15;;;5.30;;
64498;SDS011;51087;55.718;21.122;2022-12-11T02:02:07;10.60;;;5.00;;
64498;SDS011;51087;55.718;21.122;2022-12-11T02:04:37;7.40;;;4.15;;
64498;SDS011;51087;55.718;21.122;2022-12-11T02:07:04;12.15;;;5.10;;
64498;SDS011;51087;55.718;21.122;2022-12-11T02:09:31;10.00;;;4.70;;
64498;SDS011;51087;55.718;21.122;2022-12-11T02:15:32;9.02;;;4.10;;
64498;SDS011;51087;55.718;21.122;2022-12-11T02:20:43;8.48;;;4.30;;
64498;SDS011;51087;55.718;21.122;2022-12-11T02:23:37;9.20;;;4.65;;
64498;SDS011;51087;55.718;21.122;2022-12-11T02:28:46;8.45;;;4.20;;
64498;SDS011;51087;55.718;21.122;2022-12-11T02:34:12;10.38;;;4.75;;
64498;SDS011;51087;55.718;21.122;2022-12-11T02:36:42;10.50;;;4.80;;
64498;SDS011;51087;55.718;21.122;2022-12-11T02:39:15;9.32;;;4.18;;
64498;SDS011;51087;55.718;21.122;2022-12-11T02:41:44;10.73;;;4.25;;
64498;SDS011;51087;55.718;21.122;2022-12-11T02:44:13;12.88;;;5.90;;
64498;SDS011;51087;55.718;21.122;2022-12-11T02:46:41;8.80;;;4.40;;
64498;SDS011;51087;55.718;21.122;2022-12-11T02:49:08;10.25;;;5.15;;
64498;SDS011;51087;55.718;21.122;2022-12-11T02:51:38;13.23;;;6.90;;
64498;SDS011;51087;55.718;21.122;2022-12-11T02:54:06;7.57;;;4.28;;
64498;SDS011;51087;55.718;21.122;2022-12-11T02:56:37;10.45;;;5.03;;
64498;SDS011;51087;55.718;21.122;2022-12-11T02:59:14;8.77;;;4.45;;
64498;SDS011;51087;55.718;21.122;2022-12-11T03:01:44;19.98;;;7.43;;
64498;SDS011;51087;55.718;21.122;2022-12-11T03:04:10;13.40;;;5.43;;
64498;SDS011;51087;55.718;21.122;2022-12-11T03:06:38;7.45;;;3.63;;
64498;SDS011;51087;55.718;21.122;2022-12-11T03:09:08;8.18;;;3.92;;
64498;SDS011;51087;55.718;21.122;2022-12-11T03:11:34;12.88;;;4.65;;
64498;SDS011;51087;55.718;21.122;2022-12-11T03:14:00;8.85;;;4.38;;
64498;SDS011;51087;55.718;21.122;2022-12-11T03:16:32;8.55;;;3.72;;
64498;SDS011;51087;55.718;21.122;2022-12-11T03:21:36;5.57;;;3.20;;
64498;SDS011;51087;55.718;21.122;2022-12-11T03:26:45;7.25;;;3.25;;
64498;SDS011;51087;55.718;21.122;2022-12-11T03:29:19;2.15;;;1.48;;
64498;SDS011;51087;55.718;21.122;2022-12-11T03:32:11;7.22;;;3.50;;
64498;SDS011;51087;55.718;21.122;2022-12-11T03:37:15;8.07;;;3.75;;
64498;SDS011;51087;55.718;21.122;2022-12-11T03:39:44;8.02;;;3.67;;
64498;SDS011;51087;55.718;21.122;2022-12-11T03:42:13;8.57;;;3.95;;
64498;SDS011;51087;55.718;21.122;2022-12-11T03:44:41;10.38;;;3.65;;
64498;SDS011;51087;55.718;21.122;2022-12-11T03:47:08;10.38;;;4.90;;
64498;SDS011;51087;55.718;21.122;2022-12-11T03:49:38;5.50;;;2.95;;
64498;SDS011;51087;55.718;21.122;2022-12-11T03:52:06;11.00;;;4.03;;
64498;SDS011;51087;55.718;21.122;2022-12-11T03:54:33;8.32;;;4.20;;
64498;SDS011;51087;55.718;21.122;2022-12-11T03:56:59;7.65;;;3.83;;
64498;SDS011;51087;55.718;21.122;2022-12-11T03:59:26;9.82;;;4.10;;
64498;SDS011;51087;55.718;21.122;2022-12-11T04:01:52;6.80;;;3.75;;
64498;SDS011;51087;55.718;21.122;2022-12-11T04:04:17;9.88;;;4.20;;
64498;SDS011;51087;55.718;21.122;2022-12-11T04:06:43;6.18;;;3.67;;
64498;SDS011;51087;55.718;21.122;2022-12-11T04:09:08;8.25;;;3.65;;
64498;SDS011;51087;55.718;21.122;2022-12-11T04:11:34;7.10;;;3.58;;
64498;SDS011;51087;55.718;21.122;2022-12-11T04:14:03;13.80;;;4.65;;
64498;SDS011;51087;55.718;21.122;2022-12-11T04:16:48;9.02;;;4.03;;
64498;SDS011;51087;55.718;21.122;2022-12-11T04:19:14;8.50;;;4.28;;
64498;SDS011;51087;55.718;21.122;2022-12-11T04:24:42;6.07;;;2.92;;
64498;SDS011;51087;55.718;21.122;2022-12-11T04:27:07;6.80;;;3.20;;
64498;SDS011;51087;55.718;21.122;2022-12-11T04:29:32;7.35;;;3.42;;
64498;SDS011;51087;55.718;21.122;2022-12-11T04:31:58;5.88;;;3.00;;
64498;SDS011;51087;55.718;21.122;2022-12-11T04:34:23;8.02;;;3.50;;
64498;SDS011;51087;55.718;21.122;2022-12-11T04:36:49;6.22;;;3.63;;
64498;SDS011;51087;55.718;21.122;2022-12-11T04:39:15;6.47;;;3.45;;
64498;SDS011;51087;55.718;21.122;2022-12-11T04:41:41;6.22;;;3.45;;
64498;SDS011;51087;55.718;21.122;2022-12-11T04:44:06;8.98;;;4.03;;
64498;SDS011;51087;55.718;21.122;2022-12-11T04:46:32;7.55;;;3.58;;
64498;SDS011;51087;55.718;21.122;2022-12-11T04:48:58;6.78;;;3.47;;
64498;SDS011;51087;55.718;21.122;2022-12-11T04:51:24;8.63;;;4.20;;
64498;SDS011;51087;55.718;21.122;2022-12-11T04:53:50;12.30;;;3.95;;
64498;SDS011;51087;55.718;21.122;2022-12-11T04:56:16;8.30;;;3.75;;
64498;SDS011;51087;55.718;21.122;2022-12-11T04:58:42;5.05;;;1.58;;
64498;SDS011;51087;55.718;21.122;2022-12-11T05:01:09;8.15;;;3.38;;
64498;SDS011;51087;55.718;21.122;2022-12-11T05:03:36;5.93;;;2.72;;
64498;SDS011;51087;55.718;21.122;2022-12-11T05:06:01;5.95;;;3.00;;
64498;SDS011;51087;55.718;21.122;2022-12-11T05:08:27;4.78;;;2.35;;
64498;SDS011;51087;55.718;21.122;2022-12-11T05:10:56;6.43;;;3.17;;
64498;SDS011;51087;55.718;21.122;2022-12-11T05:13:23;5.72;;;3.08;;
64498;SDS011;51087;55.718;21.122;2022-12-11T05:15:49;5.68;;;2.60;;
64498;SDS011;51087;55.718;21.122;2022-12-11T05:18:14;6.00;;;3.20;;
64498;SDS011;51087;55.718;21.122;2022-12-11T05:20:40;6.40;;;3.33;;
64498;SDS011;51087;55.718;21.122;2022-12-11T05:23:05;4.13;;;2.08;;
64498;SDS011;51087;55.718;21.122;2022-12-11T05:25:30;5.68;;;2.85;;
64498;SDS011;51087;55.718;21.122;2022-12-11T05:27:56;7.30;;;3.58;;
64498;SDS011;51087;55.718;21.122;2022-12-11T05:30:22;8.57;;;3.95;;
64498;SDS011;51087;55.718;21.122;2022-12-11T05:32:47;6.35;;;3.33;;
64498;SDS011;51087;55.718;21.122;2022-12-11T05:35:12;5.70;;;2.95;;
64498;SDS011;51087;55.718;21.122;2022-12-11T05:37:38;6.35;;;3.30;;
64498;SDS011;51087;55.718;21.122;2022-12-11T05:40:03;6.10;;;2.75;;
64498;SDS011;51087;55.718;21.122;2022-12-11T05:42:30;6.70;;;3.35;;
64498;SDS011;51087;55.718;21.122;2022-12-11T05:44:56;9.35;;;3.72;;
64498;SDS011;51087;55.718;21.122;2022-12-11T05:47:22;4.30;;;2.20;;
64498;SDS011;51087;55.718;21.122;2022-12-11T05:49:47;5.78;;;2.92;;
64498;SDS011;51087;55.718;21.122;2022-12-11T05:52:13;7.93;;;3.13;;
64498;SDS011;51087;55.718;21.122;2022-12-11T05:54:38;8.52;;;3.72;;
64498;SDS011;51087;55.718;21.122;2022-12-11T05:57:03;6.88;;;2.90;;
64498;SDS011;51087;55.718;21.122;2022-12-11T05:59:29;6.25;;;2.92;;
64498;SDS011;51087;55.718;21.122;2022-12-11T06:01:54;6.30;;;3.13;;
64498;SDS011;51087;55.718;21.122;2022-12-11T06:04:20;7.15;;;3.45;;
64498;SDS011;51087;55.718;21.122;2022-12-11T06:06:45;5.32;;;2.75;;
64498;SDS011;51087;55.718;21.122;2022-12-11T06:09:14;4.63;;;2.78;;
64498;SDS011;51087;55.718;21.122;2022-12-11T06:11:40;5.78;;;2.10;;
64498;SDS011;51087;55.718;21.122;2022-12-11T06:14:05;5.38;;;2.08;;
64498;SDS011;51087;55.718;21.122;2022-12-11T06:16:31;5.30;;;2.88;;
64498;SDS011;51087;55.718;21.122;2022-12-11T06:18:56;5.68;;;2.88;;
64498;SDS011;51087;55.718;21.122;2022-12-11T06:21:23;6.97;;;3.00;;
64498;SDS011;51087;55.718;21.122;2022-12-11T06:23:51;3.75;;;2.13;;
64498;SDS011;51087;55.718;21.122;2022-12-11T06:26:17;3.22;;;2.03;;
64498;SDS011;51087;55.718;21.122;2022-12-11T06:28:44;5.25;;;2.78;;
64498;SDS011;51087;55.718;21.122;2022-12-11T06:31:10;7.05;;;3.28;;
64498;SDS011;51087;55.718;21.122;2022-12-11T06:33:36;6.30;;;3.10;;
64498;SDS011;51087;55.718;21.122;2022-12-11T06:36:03;5.03;;;2.67;;
64498;SDS011;51087;55.718;21.122;2022-12-11T06:38:32;5.47;;;2.83;;
64498;SDS011;51087;55.718;21.122;2022-12-11T06:40:58;5.57;;;2.85;;
64498;SDS011;51087;55.718;21.122;2022-12-11T06:43:25;7.40;;;2.40;;
64498;SDS011;51087;55.718;21.122;2022-12-11T06:45:50;7.15;;;2.90;;
64498;SDS011;51087;55.718;21.122;2022-12-11T06:48:16;6.85;;;3.33;;
64498;SDS011;51087;55.718;21.122;2022-12-11T06:50:43;5.45;;;2.72;;
64498;SDS011;51087;55.718;21.122;2022-12-11T06:53:10;5.75;;;2.75;;
64498;SDS011;51087;55.718;21.122;2022-12-11T06:55:36;5.28;;;1.80;;
64498;SDS011;51087;55.718;21.122;2022-12-11T06:58:02;3.88;;;2.22;;
64498;SDS011;51087;55.718;21.122;2022-12-11T07:00:27;5.10;;;2.75;;
64498;SDS011;51087;55.718;21.122;2022-12-11T07:02:53;6.90;;;3.17;;
64498;SDS011;51087;55.718;21.122;2022-12-11T07:05:18;9.65;;;4.22;;
64498;SDS011;51087;55.718;21.122;2022-12-11T07:07:44;9.18;;;3.78;;
64498;SDS011;51087;55.718;21.122;2022-12-11T07:10:09;3.58;;;2.17;;
64498;SDS011;51087;55.718;21.122;2022-12-11T07:12:35;6.75;;;3.38;;
64498;SDS011;51087;55.718;21.122;2022-12-11T07:15:01;9.45;;;4.22;;
64498;SDS011;51087;55.718;21.122;2022-12-11T07:17:28;6.65;;;3.03;;
64498;SDS011;51087;55.718;21.122;2022-12-11T07:19:54;8.80;;;4.70;;
64498;SDS011;51087;55.718;21.122;2022-12-11T07:22:19;9.02;;;3.55;;
64498;SDS011;51087;55.718;21.122;2022-12-11T07:24:45;9.25;;;4.35;;
64498;SDS011;51087;55.718;21.122;2022-12-11T07:27:10;9.85;;;4.60;;
64498;SDS011;51087;55.718;21.122;2022-12-11T07:29:35;9.88;;;4.30;;
64498;SDS011;51087;55.718;21.122;2022-12-11T07:32:01;8.65;;;4.30;;
64498;SDS011;51087;55.718;21.122;2022-12-11T07:34:26;9.57;;;4.18;;
64498;SDS011;51087;55.718;21.122;2022-12-11T07:36:52;11.02;;;4.75;;
64498;SDS011;51087;55.718;21.122;2022-12-11T07:39:17;10.00;;;4.72;;
64498;SDS011;51087;55.718;21.122;2022-12-11T07:41:42;16.00;;;5.68;;
64498;SDS011;51087;55.718;21.122;2022-12-11T07:44:08;6.65;;;3.75;;
64498;SDS011;51087;55.718;21.122;2022-12-11T07:46:33;11.80;;;5.15;;
64498;SDS011;51087;55.718;21.122;2022-12-11T07:48:59;17.63;;;5.65;;
64498;SDS011;51087;55.718;21.122;2022-12-11T07:51:28;8.73;;;4.10;;
64498;SDS011;51087;55.718;21.122;2022-12-11T07:53:57;5.00;;;2.90;;
64498;SDS011;51087;55.718;21.122;2022-12-11T07:56:26;8.63;;;4.13;;
64498;SDS011;51087;55.718;21.122;2022-12-11T07:58:52;12.93;;;5.10;;
64498;SDS011;51087;55.718;21.122;2022-12-11T08:01:19;11.93;;;5.18;;
64498;SDS011;51087;55.718;21.122;2022-12-11T08:03:46;11.38;;;4.57;;
64498;SDS011;51087;55.718;21.122;2022-12-11T08:06:12;14.55;;;5.97;;
64498;SDS011;51087;55.718;21.122;2022-12-11T08:08:38;12.18;;;4.90;;
64498;SDS011;51087;55.718;21.122;2022-12-11T08:11:06;12.25;;;4.85;;
64498;SDS011;51087;55.718;21.122;2022-12-11T08:13:33;9.73;;;5.20;;
64498;SDS011;51087;55.718;21.122;2022-12-11T08:16:02;14.88;;;6.28;;
64498;SDS011;51087;55.718;21.122;2022-12-11T08:18:28;11.20;;;4.82;;
64498;SDS011;51087;55.718;21.122;2022-12-11T08:20:54;25.58;;;8.93;;
64498;SDS011;51087;55.718;21.122;2022-12-11T08:23:20;14.02;;;5.82;;
64498;SDS011;51087;55.718;21.122;2022-12-11T08:25:45;12.40;;;4.97;;
64498;SDS011;51087;55.718;21.122;2022-12-11T08:28:10;13.55;;;6.07;;
64498;SDS011;51087;55.718;21.122;2022-12-11T08:30:37;17.40;;;5.72;;
64498;SDS011;51087;55.718;21.122;2022-12-11T08:33:05;17.33;;;6.85;;
64498;SDS011;51087;55.718;21.122;2022-12-11T08:35:31;12.77;;;5.18;;
64498;SDS011;51087;55.718;21.122;2022-12-11T08:37:57;13.50;;;5.47;;
64498;SDS011;51087;55.718;21.122;2022-12-11T08:40:22;9.77;;;4.22;;
64498;SDS011;51087;55.718;21.122;2022-12-11T08:42:48;7.05;;;3.22;;
64498;SDS011;51087;55.718;21.122;2022-12-11T08:45:14;10.90;;;4.82;;
64498;SDS011;51087;55.718;21.122;2022-12-11T08:47:39;8.63;;;3.42;;
64498;SDS011;51087;55.718;21.122;2022-12-11T08:50:05;7.53;;;2.90;;
64498;SDS011;51087;55.718;21.122;2022-12-11T08:52:32;7.88;;;4.10;;
64498;SDS011;51087;55.718;21.122;2022-12-11T08:54:58;14.07;;;6.13;;
64498;SDS011;51087;55.718;21.122;2022-12-11T08:57:24;11.63;;;5.30;;
64498;SDS011;51087;55.718;21.122;2022-12-11T08:59:49;10.43;;;4.07;;
64498;SDS011;51087;55.718;21.122;2022-12-11T09:02:15;9.75;;;4.47;;
64498;SDS011;51087;55.718;21.122;2022-12-11T09:04:40;12.80;;;4.70;;
64498;SDS011;51087;55.718;21.122;2022-12-11T09:07:05;11.50;;;4.57;;
64498;SDS011;51087;55.718;21.122;2022-12-11T09:09:31;17.63;;;4.78;;
64498;SDS011;51087;55.718;21.122;2022-12-11T09:11:56;10.45;;;4.50;;
64498;SDS011;51087;55.718;21.122;2022-12-11T09:14:23;5.78;;;3.60;;
64498;SDS011;51087;55.718;21.122;2022-12-11T09:16:48;8.35;;;3.80;;
64498;SDS011;51087;55.718;21.122;2022-12-11T09:19:14;9.90;;;4.40;;
64498;SDS011;51087;55.718;21.122;2022-12-11T09:21:40;5.40;;;2.63;;
64498;SDS011;51087;55.718;21.122;2022-12-11T09:24:07;8.98;;;3.67;;
64498;SDS011;51087;55.718;21.122;2022-12-11T09:26:33;9.77;;;4.43;;
64498;SDS011;51087;55.718;21.122;2022-12-11T09:29:00;17.83;;;6.15;;
64498;SDS011;51087;55.718;21.122;2022-12-11T09:31:28;3.00;;;1.75;;
64498;SDS011;51087;55.718;21.122;2022-12-11T09:33:56;8.52;;;4.13;;
64498;SDS011;51087;55.718;21.122;2022-12-11T09:36:26;6.30;;;3.75;;
64498;SDS011;51087;55.718;21.122;2022-12-11T09:38:52;7.93;;;4.13;;
64498;SDS011;51087;55.718;21.122;2022-12-11T09:46:27;4.28;;;2.25;;
64498;SDS011;51087;55.718;21.122;2022-12-11T09:48:53;9.60;;;3.72;;
64498;SDS011;51087;55.718;21.122;2022-12-11T09:53:53;10.00;;;3.22;;
64498;SDS011;51087;55.718;21.122;2022-12-11T09:56:22;6.65;;;3.05;;
64498;SDS011;51087;55.718;21.122;2022-12-11T10:07:16;5.85;;;3.17;;
64498;SDS011;51087;55.718;21.122;2022-12-11T10:18:21;4.50;;;2.15;;
64498;SDS011;51087;55.718;21.122;2022-12-11T10:20:49;7.05;;;3.17;;
64498;SDS011;51087;55.718;21.122;2022-12-11T10:26:17;9.82;;;4.30;;
64498;SDS011;51087;55.718;21.122;2022-12-11T10:28:44;7.43;;;4.00;;
64498;SDS011;51087;55.718;21.122;2022-12-11T10:31:17;8.88;;;3.58;;
64498;SDS011;51087;55.718;21.122;2022-12-11T10:36:29;6.10;;;2.70;;
64498;SDS011;51087;55.718;21.122;2022-12-11T10:39:15;3.38;;;2.25;;
64498;SDS011;51087;55.718;21.122;2022-12-11T10:41:43;11.43;;;3.72;;
64498;SDS011;51087;55.718;21.122;2022-12-11T10:44:14;9.25;;;4.10;;
64498;SDS011;51087;55.718;21.122;2022-12-11T10:46:40;4.80;;;2.78;;
64498;SDS011;51087;55.718;21.122;2022-12-11T10:49:17;9.60;;;4.75;;
64498;SDS011;51087;55.718;21.122;2022-12-11T10:51:45;10.93;;;5.10;;
64498;SDS011;51087;55.718;21.122;2022-12-11T10:56:43;7.75;;;3.13;;
64498;SDS011;51087;55.718;21.122;2022-12-11T10:59:31;6.50;;;2.20;;
64498;SDS011;51087;55.718;21.122;2022-12-11T11:02:04;8.57;;;3.83;;
64498;SDS011;51087;55.718;21.122;2022-12-11T11:04:34;5.13;;;2.38;;
64498;SDS011;51087;55.718;21.122;2022-12-11T11:07:10;12.60;;;4.25;;
64498;SDS011;51087;55.718;21.122;2022-12-11T11:09:36;6.05;;;2.78;;
64498;SDS011;51087;55.718;21.122;2022-12-11T11:12:04;10.13;;;4.40;;
64498;SDS011;51087;55.718;21.122;2022-12-11T11:14:41;8.68;;;3.63;;
64498;SDS011;51087;55.718;21.122;2022-12-11T11:17:10;11.25;;;4.47;;
64498;SDS011;51087;55.718;21.122;2022-12-11T11:19:39;9.70;;;4.03;;
64498;SDS011;51087;55.718;21.122;2022-12-11T11:22:05;10.73;;;4.35;;
64498;SDS011;51087;55.718;21.122;2022-12-11T11:24:43;8.90;;;3.75;;
64498;SDS011;51087;55.718;21.122;2022-12-11T11:27:12;3.50;;;2.03;;
64498;SDS011;51087;55.718;21.122;2022-12-11T11:29:37;4.75;;;2.60;;
64498;SDS011;51087;55.718;21.122;2022-12-11T11:32:22;6.63;;;3.85;;
64498;SDS011;51087;55.718;21.122;2022-12-11T11:34:50;9.65;;;4.25;;
64498;SDS011;51087;55.718;21.122;2022-12-11T11:37:23;2.00;;;1.77;;
64498;SDS011;51087;55.718;21.122;2022-12-11T11:40:02;8.18;;;3.90;;
64498;SDS011;51087;55.718;21.122;2022-12-11T11:42:46;2.40;;;1.10;;
64498;SDS011;51087;55.718;21.122;2022-12-11T11:45:28;7.65;;;3.10;;
64498;SDS011;51087;55.718;21.122;2022-12-11T11:50:32;7.65;;;3.58;;
64498;SDS011;51087;55.718;21.122;2022-12-11T11:58:38;2.25;;;1.50;;
64498;SDS011;51087;55.718;21.122;2022-12-11T12:01:14;5.43;;;2.60;;
64498;SDS011;51087;55.718;21.122;2022-12-11T12:03:42;6.53;;;3.13;;
64498;SDS011;51087;55.718;21.122;2022-12-11T12:14:31;5.95;;;3.08;;
64498;SDS011;51087;55.718;21.122;2022-12-11T12:17:09;3.72;;;2.00;;
64498;SDS011;51087;55.718;21.122;2022-12-11T12:40:19;6.45;;;2.60;;
64498;SDS011;51087;55.718;21.122;2022-12-11T12:45:48;3.63;;;1.65;;
64498;SDS011;51087;55.718;21.122;2022-12-11T12:48:35;1.45;;;1.10;;
64498;SDS011;51087;55.718;21.122;2022-12-11T12:51:00;6.15;;;2.55;;
64498;SDS011;51087;55.718;21.122;2022-12-11T12:53:29;4.82;;;2.88;;
64498;SDS011;51087;55.718;21.122;2022-12-11T12:55:58;4.30;;;2.25;;
64498;SDS011;51087;55.718;21.122;2022-12-11T13:04:04;3.22;;;1.98;;
64498;SDS011;51087;55.718;21.122;2022-12-11T13:06:41;7.07;;;3.22;;
64498;SDS011;51087;55.718;21.122;2022-12-11T13:09:12;5.57;;;2.65;;
64498;SDS011;51087;55.718;21.122;2022-12-11T13:11:50;4.65;;;2.08;;
64498;SDS011;51087;55.718;21.122;2022-12-11T13:16:47;8.95;;;3.30;;
64498;SDS011;51087;55.718;21.122;2022-12-11T13:19:15;7.03;;;3.40;;
64498;SDS011;51087;55.718;21.122;2022-12-11T13:21:41;4.40;;;1.50;;
64498;SDS011;51087;55.718;21.122;2022-12-11T13:26:44;7.50;;;3.30;;
64498;SDS011;51087;55.718;21.122;2022-12-11T13:29:29;8.02;;;3.35;;
64498;SDS011;51087;55.718;21.122;2022-12-11T13:31:57;6.57;;;3.78;;
64498;SDS011;51087;55.718;21.122;2022-12-11T13:34:25;6.90;;;3.05;;
64498;SDS011;51087;55.718;21.122;2022-12-11T13:36:55;3.60;;;2.00;;
64498;SDS011;51087;55.718;21.122;2022-12-11T13:39:23;5.70;;;3.25;;
64498;SDS011;51087;55.718;21.122;2022-12-11T13:41:52;5.47;;;2.47;;
64498;SDS011;51087;55.718;21.122;2022-12-11T13:44:30;2.25;;;1.45;;
64498;SDS011;51087;55.718;21.122;2022-12-11T13:47:02;4.60;;;1.75;;
64498;SDS011;51087;55.718;21.122;2022-12-11T13:49:31;8.80;;;3.42;;
64498;SDS011;51087;55.718;21.122;2022-12-11T13:51:59;6.55;;;2.97;;
64498;SDS011;51087;55.718;21.122;2022-12-11T13:54:26;6.70;;;2.63;;
64498;SDS011;51087;55.718;21.122;2022-12-11T13:59:26;5.22;;;2.42;;
64498;SDS011;51087;55.718;21.122;2022-12-11T14:01:57;8.15;;;3.58;;
64498;SDS011;51087;55.718;21.122;2022-12-11T14:04:27;3.53;;;2.17;;
64498;SDS011;51087;55.718;21.122;2022-12-11T14:06:54;7.55;;;3.00;;
64498;SDS011;51087;55.718;21.122;2022-12-11T14:09:21;8.15;;;3.15;;
64498;SDS011;51087;55.718;21.122;2022-12-11T14:11:50;5.13;;;2.60;;
64498;SDS011;51087;55.718;21.122;2022-12-11T14:14:24;7.63;;;2.88;;
64498;SDS011;51087;55.718;21.122;2022-12-11T14:16:59;2.88;;;1.83;;
64498;SDS011;51087;55.718;21.122;2022-12-11T14:19:25;3.15;;;1.45;;
64498;SDS011;51087;55.718;21.122;2022-12-11T14:22:01;2.15;;;1.83;;
64498;SDS011;51087;55.718;21.122;2022-12-11T14:24:29;5.28;;;2.33;;
64498;SDS011;51087;55.718;21.122;2022-12-11T14:26:55;5.28;;;2.95;;
64498;SDS011;51087;55.718;21.122;2022-12-11T14:29:26;6.88;;;3.08;;
64498;SDS011;51087;55.718;21.122;2022-12-11T14:31:53;5.53;;;3.08;;
64498;SDS011;51087;55.718;21.122;2022-12-11T14:34:23;3.53;;;1.65;;
64498;SDS011;51087;55.718;21.122;2022-12-11T14:36:52;4.25;;;2.40;;
64498;SDS011;51087;55.718;21.122;2022-12-11T14:39:26;6.30;;;2.95;;
64498;SDS011;51087;55.718;21.122;2022-12-11T14:44:21;3.30;;;2.28;;
64498;SDS011;51087;55.718;21.122;2022-12-11T14:46:51;5.15;;;2.90;;
64498;SDS011;51087;55.718;21.122;2022-12-11T14:52:16;5.93;;;3.40;;
64498;SDS011;51087;55.718;21.122;2022-12-11T14:54:46;7.60;;;3.67;;
64498;SDS011;51087;55.718;21.122;2022-12-11T14:57:17;2.78;;;1.83;;
64498;SDS011;51087;55.718;21.122;2022-12-11T14:59:47;6.07;;;3.20;;
64498;SDS011;51087;55.718;21.122;2022-12-11T15:05:28;11.38;;;3.90;;
64498;SDS011;51087;55.718;21.122;2022-12-11T15:08:14;5.97;;;2.95;;
64498;SDS011;51087;55.718;21.122;2022-12-11T15:13:29;6.35;;;2.50;;
64498;SDS011;51087;55.718;21.122;2022-12-11T15:15:54;5.10;;;2.47;;
64498;SDS011;51087;55.718;21.122;2022-12-11T15:21:00;7.05;;;3.70;;
64498;SDS011;51087;55.718;21.122;2022-12-11T15:23:28;6.85;;;3.63;;
64498;SDS011;51087;55.718;21.122;2022-12-11T15:25:57;8.50;;;4.53;;
64498;SDS011;51087;55.718;21.122;2022-12-11T15:28:26;10.23;;;3.63;;
64498;SDS011;51087;55.718;21.122;2022-12-11T15:30:56;5.45;;;3.60;;
64498;SDS011;51087;55.718;21.122;2022-12-11T15:33:23;9.60;;;4.30;;
64498;SDS011;51087;55.718;21.122;2022-12-11T15:38:36;6.50;;;2.35;;
64498;SDS011;51087;55.718;21.122;2022-12-11T15:41:12;3.58;;;1.92;;
64498;SDS011;51087;55.718;21.122;2022-12-11T15:43:39;7.65;;;2.78;;
64498;SDS011;51087;55.718;21.122;2022-12-11T15:46:05;4.15;;;2.47;;
64498;SDS011;51087;55.718;21.122;2022-12-11T15:48:31;7.47;;;3.13;;
64498;SDS011;51087;55.718;21.122;2022-12-11T15:50:57;5.43;;;3.25;;
64498;SDS011;51087;55.718;21.122;2022-12-11T15:53:22;5.10;;;1.85;;
64498;SDS011;51087;55.718;21.122;2022-12-11T15:55:48;8.45;;;3.13;;
64498;SDS011;51087;55.718;21.122;2022-12-11T15:58:15;3.35;;;2.00;;
64498;SDS011;51087;55.718;21.122;2022-12-11T16:00:43;7.10;;;2.42;;
64498;SDS011;51087;55.718;21.122;2022-12-11T16:03:12;6.38;;;2.90;;
64498;SDS011;51087;55.718;21.122;2022-12-11T16:05:39;6.60;;;3.25;;
64498;SDS011;51087;55.718;21.122;2022-12-11T16:08:05;2.30;;;1.50;;
64498;SDS011;51087;55.718;21.122;2022-12-11T16:10:31;6.97;;;4.03;;
64498;SDS011;51087;55.718;21.122;2022-12-11T16:12:57;7.07;;;3.80;;
64498;SDS011;51087;55.718;21.122;2022-12-11T16:15:24;5.05;;;2.30;;
64498;SDS011;51087;55.718;21.122;2022-12-11T16:17:57;13.50;;;5.13;;
64498;SDS011;51087;55.718;21.122;2022-12-11T16:20:24;11.65;;;4.95;;
64498;SDS011;51087;55.718;21.122;2022-12-11T16:22:49;11.85;;;6.10;;
64498;SDS011;51087;55.718;21.122;2022-12-11T16:25:15;13.20;;;5.50;;
64498;SDS011;51087;55.718;21.122;2022-12-11T16:27:40;3.42;;;2.15;;
64498;SDS011;51087;55.718;21.122;2022-12-11T16:30:06;20.17;;;6.57;;
64498;SDS011;51087;55.718;21.122;2022-12-11T16:32:34;19.90;;;7.32;;
64498;SDS011;51087;55.718;21.122;2022-12-11T16:34:59;4.28;;;2.67;;
64498;SDS011;51087;55.718;21.122;2022-12-11T16:37:25;3.05;;;1.65;;
64498;SDS011;51087;55.718;21.122;2022-12-11T16:39:50;7.93;;;3.22;;
64498;SDS011;51087;55.718;21.122;2022-12-11T16:42:16;11.20;;;5.18;;
64498;SDS011;51087;55.718;21.122;2022-12-11T16:44:41;9.00;;;4.32;;